首页
METAR-TAF:

METAR-TAF

机场 :

Bainbridge, 喬治亞, 美国

纬度: 30-58N, 经度: 084-38W, 海拔: 43米

当前天气观测

该预报发布于17分钟前的13:55 UTC
风速9节,风向
温度 27°C
湿度 89%
气压 1017 hPa
能見度: 16.1公里
多云层高于800英尺
阴天层高于1700英尺

METAR: KBGE 251355Z AUTO 09009KT 10SM BKN008 OVC017 27/25 A3002 RMK AO2 T02660246

时间: 10:12 (14:12 UTC)


TAF: 丢失

超过4000个机场的气象观测和天气预报(METAR&TAF报告)。

可查询的气象台以黄色和红色小点在地图上表示。

将鼠标移到小点上方,可查看气象台名称。

然后点击查看天气观测和预报。

如需切换地图:点击带黑十字的绿色按钮放大地图;点击带横线的绿色按钮缩小地图;或者点击绿色箭头查看邻近地区的地图。


METAR-TAF: